Página principal
METAR-TAF:

METAR-TAF

Aeroportos :

Aeroporto de Namibe

Namibe, Angola

latitude: 15-15-40S, longitude: 12-08-50E, altura: 64 m

METAR: em falta

Hora: 11:59 (10:59 UTC)

Previsão

O boletim foi feito há 14 horas e 3 minutos, às 20:56 UTC
Previsão válida de 20 às 00 UTC a 20 às 12 UTC
Vento 2 kt com direcção variável
Visibilidade: 8000 m
Encobertoa uma altura de 1000 ft
Temporariamente
de 20 às 03 UTC a 20 às 08 UTC
Visibilidade: 4000 m
neblina,

TAF: FNMO 192056Z 2000/2012 VRB02KT 8000 OVC010 TEMPO 2003/2008 4000 BR

Observações e previsões do tempo de mais de 4000 aeroportos (mensagens METAR e TAF).

As estações disponíveis são os pontos amarelos e vermelhos sobre o mapa.

Mova o rato sobre o mapa para ver o nome da estação.

Depois clique no ponto para visualizar as observações e previsões meteorológicas.

Para alterar o mapa : clique nos botões verdes com uma cruz preta para aumentar o zoom; no botão verde com uma pitada de zoom; ou nas setas verdes para mapas adjacentes.


METAR-TAF: